sensor_id;sensor_type;location;lat;lon;timestamp;temperature;humidity
69589;SHT31;56792;50.644;17.984;2023-04-30T00:00:18;11.65;80.60
69589;SHT31;56792;50.644;17.984;2023-04-30T00:02:46;11.63;80.68
69589;SHT31;56792;50.644;17.984;2023-04-30T00:05:14;11.61;80.85
69589;SHT31;56792;50.644;17.984;2023-04-30T00:07:43;11.60;80.93
69589;SHT31;56792;50.644;17.984;2023-04-30T00:10:11;11.58;80.80
69589;SHT31;56792;50.644;17.984;2023-04-30T00:12:40;11.56;80.67
69589;SHT31;56792;50.644;17.984;2023-04-30T00:15:08;11.56;80.51
69589;SHT31;56792;50.644;17.984;2023-04-30T00:17:37;11.53;80.38
69589;SHT31;56792;50.644;17.984;2023-04-30T00:20:06;11.53;80.31
69589;SHT31;56792;50.644;17.984;2023-04-30T00:22:37;11.52;80.17
69589;SHT31;56792;50.644;17.984;2023-04-30T00:25:05;11.51;80.01
69589;SHT31;56792;50.644;17.984;2023-04-30T00:27:34;11.48;79.66
69589;SHT31;56792;50.644;17.984;2023-04-30T00:30:03;11.45;79.39
69589;SHT31;56792;50.644;17.984;2023-04-30T00:32:34;11.43;79.21
69589;SHT31;56792;50.644;17.984;2023-04-30T00:35:03;11.40;78.88
69589;SHT31;56792;50.644;17.984;2023-04-30T00:37:32;11.36;78.48
69589;SHT31;56792;50.644;17.984;2023-04-30T00:40:01;11.31;78.29
69589;SHT31;56792;50.644;17.984;2023-04-30T00:42:30;11.27;78.28
69589;SHT31;56792;50.644;17.984;2023-04-30T00:44:58;11.24;78.08
69589;SHT31;56792;50.644;17.984;2023-04-30T00:47:26;11.22;77.81
69589;SHT31;56792;50.644;17.984;2023-04-30T00:49:56;11.19;77.69
69589;SHT31;56792;50.644;17.984;2023-04-30T00:52:25;11.16;77.54
69589;SHT31;56792;50.644;17.984;2023-04-30T00:54:54;11.13;77.31
69589;SHT31;56792;50.644;17.984;2023-04-30T00:57:22;11.11;77.00
69589;SHT31;56792;50.644;17.984;2023-04-30T00:59:53;11.09;76.85
69589;SHT31;56792;50.644;17.984;2023-04-30T01:02:22;11.07;76.63
69589;SHT31;56792;50.644;17.984;2023-04-30T01:04:50;11.05;76.41
69589;SHT31;56792;50.644;17.984;2023-04-30T01:07:20;11.02;76.12
69589;SHT31;56792;50.644;17.984;2023-04-30T01:09:48;11.01;75.96
69589;SHT31;56792;50.644;17.984;2023-04-30T01:12:19;10.99;75.67
69589;SHT31;56792;50.644;17.984;2023-04-30T01:14:59;10.96;75.44
69589;SHT31;56792;50.644;17.984;2023-04-30T01:17:43;10.94;75.43
69589;SHT31;56792;50.644;17.984;2023-04-30T01:20:21;10.93;75.32
69589;SHT31;56792;50.644;17.984;2023-04-30T01:22:54;10.91;75.20
69589;SHT31;56792;50.644;17.984;2023-04-30T01:25:44;10.89;75.12
69589;SHT31;56792;50.644;17.984;2023-04-30T01:28:33;10.87;75.00
69589;SHT31;56792;50.644;17.984;2023-04-30T01:31:10;10.86;74.74
69589;SHT31;56792;50.644;17.984;2023-04-30T01:33:41;10.84;74.49
69589;SHT31;56792;50.644;17.984;2023-04-30T01:39:20;10.81;74.37
69589;SHT31;56792;50.644;17.984;2023-04-30T01:42:06;10.77;74.13
69589;SHT31;56792;50.644;17.984;2023-04-30T01:44:48;10.75;74.19
69589;SHT31;56792;50.644;17.984;2023-04-30T01:47:33;10.75;74.14
69589;SHT31;56792;50.644;17.984;2023-04-30T01:50:14;10.74;74.13
69589;SHT31;56792;50.644;17.984;2023-04-30T01:52:55;10.74;74.21
69589;SHT31;56792;50.644;17.984;2023-04-30T01:55:29;10.74;74.16
69589;SHT31;56792;50.644;17.984;2023-04-30T01:58:06;10.73;74.04
69589;SHT31;56792;50.644;17.984;2023-04-30T02:00:38;10.74;73.96
69589;SHT31;56792;50.644;17.984;2023-04-30T02:03:07;10.73;73.99
69589;SHT31;56792;50.644;17.984;2023-04-30T02:05:35;10.71;73.90
69589;SHT31;56792;50.644;17.984;2023-04-30T02:08:04;10.71;73.97
69589;SHT31;56792;50.644;17.984;2023-04-30T02:10:33;10.72;73.97
69589;SHT31;56792;50.644;17.984;2023-04-30T02:13:02;10.71;73.97
69589;SHT31;56792;50.644;17.984;2023-04-30T02:15:30;10.70;73.79
69589;SHT31;56792;50.644;17.984;2023-04-30T02:17:58;10.70;73.70
69589;SHT31;56792;50.644;17.984;2023-04-30T02:20:27;10.69;73.57
69589;SHT31;56792;50.644;17.984;2023-04-30T02:22:55;10.68;73.24
69589;SHT31;56792;50.644;17.984;2023-04-30T02:25:23;10.65;73.06
69589;SHT31;56792;50.644;17.984;2023-04-30T02:27:52;10.64;73.18
69589;SHT31;56792;50.644;17.984;2023-04-30T02:30:20;10.64;73.05
69589;SHT31;56792;50.644;17.984;2023-04-30T02:32:48;10.63;72.95
69589;SHT31;56792;50.644;17.984;2023-04-30T02:35:16;10.62;72.74
69589;SHT31;56792;50.644;17.984;2023-04-30T02:37:44;10.59;72.72
69589;SHT31;56792;50.644;17.984;2023-04-30T02:40:13;10.58;72.80
69589;SHT31;56792;50.644;17.984;2023-04-30T02:42:41;10.58;72.84
69589;SHT31;56792;50.644;17.984;2023-04-30T02:45:10;10.56;72.68
69589;SHT31;56792;50.644;17.984;2023-04-30T02:47:38;10.56;72.81
69589;SHT31;56792;50.644;17.984;2023-04-30T02:50:07;10.55;72.72
69589;SHT31;56792;50.644;17.984;2023-04-30T02:52:36;10.53;72.69
69589;SHT31;56792;50.644;17.984;2023-04-30T02:55:05;10.51;72.53
69589;SHT31;56792;50.644;17.984;2023-04-30T02:57:35;10.51;72.49
69589;SHT31;56792;50.644;17.984;2023-04-30T03:00:05;10.50;72.41
69589;SHT31;56792;50.644;17.984;2023-04-30T03:02:36;10.49;72.59
69589;SHT31;56792;50.644;17.984;2023-04-30T03:05:05;10.46;72.42
69589;SHT31;56792;50.644;17.984;2023-04-30T03:07:34;10.43;72.30
69589;SHT31;56792;50.644;17.984;2023-04-30T03:10:03;10.38;72.29
69589;SHT31;56792;50.644;17.984;2023-04-30T03:12:33;10.34;72.55
69589;SHT31;56792;50.644;17.984;2023-04-30T03:15:02;10.30;72.64
69589;SHT31;56792;50.644;17.984;2023-04-30T03:17:33;10.25;72.70
69589;SHT31;56792;50.644;17.984;2023-04-30T03:20:02;10.20;72.75
69589;SHT31;56792;50.644;17.984;2023-04-30T03:22:32;10.16;72.93
69589;SHT31;56792;50.644;17.984;2023-04-30T03:25:00;10.14;73.16
69589;SHT31;56792;50.644;17.984;2023-04-30T03:27:28;10.13;73.30
69589;SHT31;56792;50.644;17.984;2023-04-30T03:29:56;10.13;73.36
69589;SHT31;56792;50.644;17.984;2023-04-30T03:32:25;10.14;73.49
69589;SHT31;56792;50.644;17.984;2023-04-30T03:34:53;10.13;73.57
69589;SHT31;56792;50.644;17.984;2023-04-30T03:37:21;10.12;73.54
69589;SHT31;56792;50.644;17.984;2023-04-30T03:39:49;10.11;73.69
69589;SHT31;56792;50.644;17.984;2023-04-30T03:42:17;10.11;73.63
69589;SHT31;56792;50.644;17.984;2023-04-30T03:44:46;10.10;73.53
69589;SHT31;56792;50.644;17.984;2023-04-30T03:47:14;10.11;73.62
69589;SHT31;56792;50.644;17.984;2023-04-30T03:49:42;10.12;73.57
69589;SHT31;56792;50.644;17.984;2023-04-30T03:52:11;10.13;73.64
69589;SHT31;56792;50.644;17.984;2023-04-30T03:54:39;10.13;73.66
69589;SHT31;56792;50.644;17.984;2023-04-30T03:57:07;10.13;73.74
69589;SHT31;56792;50.644;17.984;2023-04-30T03:59:37;10.13;73.82
69589;SHT31;56792;50.644;17.984;2023-04-30T04:02:06;10.13;73.82
69589;SHT31;56792;50.644;17.984;2023-04-30T04:04:34;10.13;73.85
69589;SHT31;56792;50.644;17.984;2023-04-30T04:07:03;10.13;73.95
69589;SHT31;56792;50.644;17.984;2023-04-30T04:09:33;10.14;73.96
69589;SHT31;56792;50.644;17.984;2023-04-30T04:12:03;10.15;73.97
69589;SHT31;56792;50.644;17.984;2023-04-30T04:14:32;10.20;74.00
69589;SHT31;56792;50.644;17.984;2023-04-30T04:17:01;10.24;73.84
69589;SHT31;56792;50.644;17.984;2023-04-30T04:19:30;10.28;73.75
69589;SHT31;56792;50.644;17.984;2023-04-30T04:21:59;10.31;73.67
69589;SHT31;56792;50.644;17.984;2023-04-30T04:24:27;10.35;73.71
69589;SHT31;56792;50.644;17.984;2023-04-30T04:26:56;10.39;73.79
69589;SHT31;56792;50.644;17.984;2023-04-30T04:29:24;10.42;73.72
69589;SHT31;56792;50.644;17.984;2023-04-30T04:31:52;10.46;73.71
69589;SHT31;56792;50.644;17.984;2023-04-30T04:34:21;10.49;73.68
69589;SHT31;56792;50.644;17.984;2023-04-30T04:36:49;10.50;73.51
69589;SHT31;56792;50.644;17.984;2023-04-30T04:39:18;10.50;73.36
69589;SHT31;56792;50.644;17.984;2023-04-30T04:41:46;10.50;73.32
69589;SHT31;56792;50.644;17.984;2023-04-30T04:44:14;10.49;73.31
69589;SHT31;56792;50.644;17.984;2023-04-30T04:46:43;10.45;73.24
69589;SHT31;56792;50.644;17.984;2023-04-30T04:49:11;10.42;73.29
69589;SHT31;56792;50.644;17.984;2023-04-30T04:51:40;10.38;73.12
69589;SHT31;56792;50.644;17.984;2023-04-30T04:54:08;10.34;73.20
69589;SHT31;56792;50.644;17.984;2023-04-30T04:56:36;10.30;73.16
69589;SHT31;56792;50.644;17.984;2023-04-30T04:59:04;10.24;73.19
69589;SHT31;56792;50.644;17.984;2023-04-30T05:01:33;10.22;73.36
69589;SHT31;56792;50.644;17.984;2023-04-30T05:04:01;10.22;73.39
69589;SHT31;56792;50.644;17.984;2023-04-30T05:06:29;10.22;73.43
69589;SHT31;56792;50.644;17.984;2023-04-30T05:08:57;10.22;73.42
69589;SHT31;56792;50.644;17.984;2023-04-30T05:11:26;10.22;73.38
69589;SHT31;56792;50.644;17.984;2023-04-30T05:13:54;10.22;73.33
69589;SHT31;56792;50.644;17.984;2023-04-30T05:16:23;10.20;73.19
69589;SHT31;56792;50.644;17.984;2023-04-30T05:18:51;10.20;73.29
69589;SHT31;56792;50.644;17.984;2023-04-30T05:21:19;10.23;73.33
69589;SHT31;56792;50.644;17.984;2023-04-30T05:23:48;10.25;73.22
69589;SHT31;56792;50.644;17.984;2023-04-30T05:26:16;10.27;73.41
69589;SHT31;56792;50.644;17.984;2023-04-30T05:28:44;10.31;73.10
69589;SHT31;56792;50.644;17.984;2023-04-30T05:31:12;10.31;72.76
69589;SHT31;56792;50.644;17.984;2023-04-30T05:33:41;10.33;72.50
69589;SHT31;56792;50.644;17.984;2023-04-30T05:36:09;10.35;72.36
69589;SHT31;56792;50.644;17.984;2023-04-30T05:38:38;10.39;72.34
69589;SHT31;56792;50.644;17.984;2023-04-30T05:41:08;10.43;72.17
69589;SHT31;56792;50.644;17.984;2023-04-30T05:43:37;10.47;72.13
69589;SHT31;56792;50.644;17.984;2023-04-30T05:46:06;10.52;72.09
69589;SHT31;56792;50.644;17.984;2023-04-30T05:48:34;10.58;72.09
69589;SHT31;56792;50.644;17.984;2023-04-30T05:51:03;10.64;72.07
69589;SHT31;56792;50.644;17.984;2023-04-30T05:53:32;10.70;71.65
69589;SHT31;56792;50.644;17.984;2023-04-30T05:56:00;10.75;71.33
69589;SHT31;56792;50.644;17.984;2023-04-30T05:58:28;10.81;71.15
69589;SHT31;56792;50.644;17.984;2023-04-30T06:00:57;10.90;71.30
69589;SHT31;56792;50.644;17.984;2023-04-30T06:03:25;10.99;71.24
69589;SHT31;56792;50.644;17.984;2023-04-30T06:05:54;11.10;71.04
69589;SHT31;56792;50.644;17.984;2023-04-30T06:08:22;11.20;70.81
69589;SHT31;56792;50.644;17.984;2023-04-30T06:10:50;11.29;70.46
69589;SHT31;56792;50.644;17.984;2023-04-30T06:13:19;11.40;70.20
69589;SHT31;56792;50.644;17.984;2023-04-30T06:15:47;11.53;70.20
69589;SHT31;56792;50.644;17.984;2023-04-30T06:18:15;11.67;70.24
69589;SHT31;56792;50.644;17.984;2023-04-30T06:20:43;11.83;69.86
69589;SHT31;56792;50.644;17.984;2023-04-30T06:23:11;11.99;69.81
69589;SHT31;56792;50.644;17.984;2023-04-30T06:25:40;12.17;69.42
69589;SHT31;56792;50.644;17.984;2023-04-30T06:28:08;12.36;68.96
69589;SHT31;56792;50.644;17.984;2023-04-30T06:30:36;12.53;68.22
69589;SHT31;56792;50.644;17.984;2023-04-30T06:33:06;12.69;68.07
69589;SHT31;56792;50.644;17.984;2023-04-30T06:35:34;12.90;67.88
69589;SHT31;56792;50.644;17.984;2023-04-30T06:38:02;13.16;67.29
69589;SHT31;56792;50.644;17.984;2023-04-30T06:40:31;13.39;66.80
69589;SHT31;56792;50.644;17.984;2023-04-30T06:42:59;13.58;66.29
69589;SHT31;56792;50.644;17.984;2023-04-30T06:45:27;13.68;65.94
69589;SHT31;56792;50.644;17.984;2023-04-30T06:47:56;13.79;66.08
69589;SHT31;56792;50.644;17.984;2023-04-30T06:50:24;13.91;65.61
69589;SHT31;56792;50.644;17.984;2023-04-30T06:52:52;13.98;64.10
69589;SHT31;56792;50.644;17.984;2023-04-30T06:55:21;14.09;64.67
69589;SHT31;56792;50.644;17.984;2023-04-30T06:57:49;14.20;63.65
69589;SHT31;56792;50.644;17.984;2023-04-30T07:00:19;14.25;63.19
69589;SHT31;56792;50.644;17.984;2023-04-30T07:02:47;14.37;63.40
69589;SHT31;56792;50.644;17.984;2023-04-30T07:05:17;14.50;62.06
69589;SHT31;56792;50.644;17.984;2023-04-30T07:07:45;14.57;62.43
69589;SHT31;56792;50.644;17.984;2023-04-30T07:10:14;14.68;62.29
69589;SHT31;56792;50.644;17.984;2023-04-30T07:12:42;14.82;62.39
69589;SHT31;56792;50.644;17.984;2023-04-30T07:15:10;14.99;61.73
69589;SHT31;56792;50.644;17.984;2023-04-30T07:17:39;15.15;60.96
69589;SHT31;56792;50.644;17.984;2023-04-30T07:20:08;15.27;60.20
69589;SHT31;56792;50.644;17.984;2023-04-30T07:22:39;15.33;59.85
69589;SHT31;56792;50.644;17.984;2023-04-30T07:25:10;15.40;59.58
69589;SHT31;56792;50.644;17.984;2023-04-30T07:27:39;15.73;59.62
69589;SHT31;56792;50.644;17.984;2023-04-30T07:30:08;16.09;59.42
69589;SHT31;56792;50.644;17.984;2023-04-30T07:32:36;16.35;57.78
69589;SHT31;56792;50.644;17.984;2023-04-30T07:35:07;16.41;56.84
69589;SHT31;56792;50.644;17.984;2023-04-30T07:37:36;16.46;56.87
69589;SHT31;56792;50.644;17.984;2023-04-30T07:40:05;16.54;57.05
69589;SHT31;56792;50.644;17.984;2023-04-30T07:42:38;16.68;56.47
69589;SHT31;56792;50.644;17.984;2023-04-30T07:45:08;16.83;56.76
69589;SHT31;56792;50.644;17.984;2023-04-30T07:47:37;16.99;55.49
69589;SHT31;56792;50.644;17.984;2023-04-30T07:50:07;17.05;54.32
69589;SHT31;56792;50.644;17.984;2023-04-30T07:52:37;16.98;53.90
69589;SHT31;56792;50.644;17.984;2023-04-30T07:55:05;17.00;53.88
69589;SHT31;56792;50.644;17.984;2023-04-30T07:57:35;17.02;53.09
69589;SHT31;56792;50.644;17.984;2023-04-30T08:00:04;17.15;53.28
69589;SHT31;56792;50.644;17.984;2023-04-30T08:02:38;17.18;51.43
69589;SHT31;56792;50.644;17.984;2023-04-30T08:05:08;17.24;51.83
69589;SHT31;56792;50.644;17.984;2023-04-30T08:07:37;17.48;53.01
69589;SHT31;56792;50.644;17.984;2023-04-30T08:10:07;17.51;50.86
69589;SHT31;56792;50.644;17.984;2023-04-30T08:12:36;17.54;50.53
69589;SHT31;56792;50.644;17.984;2023-04-30T08:15:05;17.78;51.93
69589;SHT31;56792;50.644;17.984;2023-04-30T08:17:34;18.06;50.55
69589;SHT31;56792;50.644;17.984;2023-04-30T08:20:03;18.25;49.74
69589;SHT31;56792;50.644;17.984;2023-04-30T08:22:34;18.31;49.58
69589;SHT31;56792;50.644;17.984;2023-04-30T08:25:02;18.49;50.87
69589;SHT31;56792;50.644;17.984;2023-04-30T08:27:32;18.75;50.50
69589;SHT31;56792;50.644;17.984;2023-04-30T08:30:00;18.92;49.54
69589;SHT31;56792;50.644;17.984;2023-04-30T08:32:29;18.97;48.48
69589;SHT31;56792;50.644;17.984;2023-04-30T08:35:01;19.10;48.18
69589;SHT31;56792;50.644;17.984;2023-04-30T08:37:30;19.28;47.33
69589;SHT31;56792;50.644;17.984;2023-04-30T08:39:58;19.51;48.21
69589;SHT31;56792;50.644;17.984;2023-04-30T08:42:28;19.65;47.89
69589;SHT31;56792;50.644;17.984;2023-04-30T08:45:02;19.91;47.75
69589;SHT31;56792;50.644;17.984;2023-04-30T08:47:34;20.11;46.19
69589;SHT31;56792;50.644;17.984;2023-04-30T08:50:04;20.18;45.38
69589;SHT31;56792;50.644;17.984;2023-04-30T08:52:34;20.16;45.23
69589;SHT31;56792;50.644;17.984;2023-04-30T08:55:07;19.99;44.70
69589;SHT31;56792;50.644;17.984;2023-04-30T08:57:36;19.79;43.99
69589;SHT31;56792;50.644;17.984;2023-04-30T09:00:05;19.45;42.67
69589;SHT31;56792;50.644;17.984;2023-04-30T09:02:38;19.41;43.32
69589;SHT31;56792;50.644;17.984;2023-04-30T09:05:08;19.69;44.00
69589;SHT31;56792;50.644;17.984;2023-04-30T09:07:40;20.19;44.18
69589;SHT31;56792;50.644;17.984;2023-04-30T09:10:14;20.58;42.87
69589;SHT31;56792;50.644;17.984;2023-04-30T09:12:43;20.65;41.33
69589;SHT31;56792;50.644;17.984;2023-04-30T09:15:24;20.84;42.40
69589;SHT31;56792;50.644;17.984;2023-04-30T09:18:05;20.97;41.82
69589;SHT31;56792;50.644;17.984;2023-04-30T09:20:35;21.07;39.95
69589;SHT31;56792;50.644;17.984;2023-04-30T09:23:18;21.33;39.32
69589;SHT31;56792;50.644;17.984;2023-04-30T09:25:46;22.44;38.97
69589;SHT31;56792;50.644;17.984;2023-04-30T09:28:15;23.87;37.86
69589;SHT31;56792;50.644;17.984;2023-04-30T09:30:43;24.11;36.44
69589;SHT31;56792;50.644;17.984;2023-04-30T09:33:12;23.50;35.84
69589;SHT31;56792;50.644;17.984;2023-04-30T09:35:40;23.19;36.66
69589;SHT31;56792;50.644;17.984;2023-04-30T09:38:24;23.16;35.96
69589;SHT31;56792;50.644;17.984;2023-04-30T09:40:54;23.37;36.18
69589;SHT31;56792;50.644;17.984;2023-04-30T09:43:25;24.00;36.19
69589;SHT31;56792;50.644;17.984;2023-04-30T09:45:53;25.06;34.15
69589;SHT31;56792;50.644;17.984;2023-04-30T09:48:25;26.56;32.80
69589;SHT31;56792;50.644;17.984;2023-04-30T09:50:53;28.42;30.52
69589;SHT31;56792;50.644;17.984;2023-04-30T09:53:22;30.36;29.94
69589;SHT31;56792;50.644;17.984;2023-04-30T09:55:50;32.28;28.30
69589;SHT31;56792;50.644;17.984;2023-04-30T09:58:19;33.82;26.47
69589;SHT31;56792;50.644;17.984;2023-04-30T10:00:51;35.19;25.63
69589;SHT31;56792;50.644;17.984;2023-04-30T10:03:24;35.60;23.78
69589;SHT31;56792;50.644;17.984;2023-04-30T10:05:52;35.90;22.18
69589;SHT31;56792;50.644;17.984;2023-04-30T10:08:23;36.77;22.20
69589;SHT31;56792;50.644;17.984;2023-04-30T10:10:56;37.86;22.37
69589;SHT31;56792;50.644;17.984;2023-04-30T10:13:30;38.49;19.77
69589;SHT31;56792;50.644;17.984;2023-04-30T10:16:06;38.75;19.96
69589;SHT31;56792;50.644;17.984;2023-04-30T10:18:48;38.37;21.07
69589;SHT31;56792;50.644;17.984;2023-04-30T10:21:21;39.33;19.61
69589;SHT31;56792;50.644;17.984;2023-04-30T10:23:52;40.04;19.21
69589;SHT31;56792;50.644;17.984;2023-04-30T10:26:22;40.48;18.57
69589;SHT31;56792;50.644;17.984;2023-04-30T10:28:51;40.99;18.85
69589;SHT31;56792;50.644;17.984;2023-04-30T10:31:23;41.59;18.58
69589;SHT31;56792;50.644;17.984;2023-04-30T10:33:54;42.07;17.39
69589;SHT31;56792;50.644;17.984;2023-04-30T10:36:34;42.46;17.35
69589;SHT31;56792;50.644;17.984;2023-04-30T10:39:09;42.53;15.49
69589;SHT31;56792;50.644;17.984;2023-04-30T10:41:38;42.45;16.07
69589;SHT31;56792;50.644;17.984;2023-04-30T10:44:11;42.80;16.60
69589;SHT31;56792;50.644;17.984;2023-04-30T10:46:40;43.06;14.98
69589;SHT31;56792;50.644;17.984;2023-04-30T10:49:11;42.86;15.63
69589;SHT31;56792;50.644;17.984;2023-04-30T10:51:49;43.50;16.04
69589;SHT31;56792;50.644;17.984;2023-04-30T10:54:23;44.09;15.49
69589;SHT31;56792;50.644;17.984;2023-04-30T10:56:53;44.38;15.03
69589;SHT31;56792;50.644;17.984;2023-04-30T10:59:36;44.45;15.21
69589;SHT31;56792;50.644;17.984;2023-04-30T11:02:10;44.64;14.42
69589;SHT31;56792;50.644;17.984;2023-04-30T11:07:45;44.53;14.49
69589;SHT31;56792;50.644;17.984;2023-04-30T11:10:15;44.65;14.16
69589;SHT31;56792;50.644;17.984;2023-04-30T11:12:48;44.47;13.50
69589;SHT31;56792;50.644;17.984;2023-04-30T11:15:19;44.14;13.41
69589;SHT31;56792;50.644;17.984;2023-04-30T11:17:50;44.26;13.97
69589;SHT31;56792;50.644;17.984;2023-04-30T11:20:22;44.87;13.83
69589;SHT31;56792;50.644;17.984;2023-04-30T11:25:39;45.10;13.58
69589;SHT31;56792;50.644;17.984;2023-04-30T11:28:12;45.05;13.70
69589;SHT31;56792;50.644;17.984;2023-04-30T11:30:49;45.19;13.20
69589;SHT31;56792;50.644;17.984;2023-04-30T11:33:19;44.42;13.53
69589;SHT31;56792;50.644;17.984;2023-04-30T11:35:49;41.52;14.33
69589;SHT31;56792;50.644;17.984;2023-04-30T11:38:19;39.85;15.19
69589;SHT31;56792;50.644;17.984;2023-04-30T11:40:51;40.44;15.04
69589;SHT31;56792;50.644;17.984;2023-04-30T11:43:23;40.55;15.10
69589;SHT31;56792;50.644;17.984;2023-04-30T11:46:03;41.86;14.70
69589;SHT31;56792;50.644;17.984;2023-04-30T11:48:35;42.80;14.23
69589;SHT31;56792;50.644;17.984;2023-04-30T11:51:10;43.40;13.26
69589;SHT31;56792;50.644;17.984;2023-04-30T11:53:42;43.48;13.52
69589;SHT31;56792;50.644;17.984;2023-04-30T11:56:16;43.83;14.18
69589;SHT31;56792;50.644;17.984;2023-04-30T11:58:46;44.26;13.44
69589;SHT31;56792;50.644;17.984;2023-04-30T12:01:15;44.16;12.82
69589;SHT31;56792;50.644;17.984;2023-04-30T12:03:46;43.76;12.56
69589;SHT31;56792;50.644;17.984;2023-04-30T12:06:20;43.36;12.73
69589;SHT31;56792;50.644;17.984;2023-04-30T12:08:51;42.78;13.31
69589;SHT31;56792;50.644;17.984;2023-04-30T12:11:21;43.04;13.45
69589;SHT31;56792;50.644;17.984;2023-04-30T12:13:51;43.78;13.68
69589;SHT31;56792;50.644;17.984;2023-04-30T12:16:22;44.35;13.87
69589;SHT31;56792;50.644;17.984;2023-04-30T12:19:03;44.78;12.55
69589;SHT31;56792;50.644;17.984;2023-04-30T12:21:32;44.51;13.16
69589;SHT31;56792;50.644;17.984;2023-04-30T12:24:01;44.99;13.37
69589;SHT31;56792;50.644;17.984;2023-04-30T12:26:35;45.46;13.29
69589;SHT31;56792;50.644;17.984;2023-04-30T12:29:07;45.46;12.96
69589;SHT31;56792;50.644;17.984;2023-04-30T12:31:38;45.29;12.52
69589;SHT31;56792;50.644;17.984;2023-04-30T12:34:06;45.38;12.92
69589;SHT31;56792;50.644;17.984;2023-04-30T12:36:38;45.32;12.25
69589;SHT31;56792;50.644;17.984;2023-04-30T12:39:08;45.08;12.31
69589;SHT31;56792;50.644;17.984;2023-04-30T12:41:41;45.04;12.96
69589;SHT31;56792;50.644;17.984;2023-04-30T12:44:15;45.19;12.80
69589;SHT31;56792;50.644;17.984;2023-04-30T12:46:44;45.41;12.76
69589;SHT31;56792;50.644;17.984;2023-04-30T12:49:21;45.54;12.65
69589;SHT31;56792;50.644;17.984;2023-04-30T12:51:51;45.69;12.54
69589;SHT31;56792;50.644;17.984;2023-04-30T12:54:26;45.49;12.29
69589;SHT31;56792;50.644;17.984;2023-04-30T12:56:57;45.40;12.20
69589;SHT31;56792;50.644;17.984;2023-04-30T12:59:28;45.44;12.19
69589;SHT31;56792;50.644;17.984;2023-04-30T13:02:07;45.36;11.79
69589;SHT31;56792;50.644;17.984;2023-04-30T13:04:37;44.99;11.84
69589;SHT31;56792;50.644;17.984;2023-04-30T13:07:07;44.78;12.33
69589;SHT31;56792;50.644;17.984;2023-04-30T13:09:36;44.92;12.24
69589;SHT31;56792;50.644;17.984;2023-04-30T13:12:05;44.68;11.92
69589;SHT31;56792;50.644;17.984;2023-04-30T13:14:33;44.66;12.13
69589;SHT31;56792;50.644;17.984;2023-04-30T13:17:02;44.72;11.95
69589;SHT31;56792;50.644;17.984;2023-04-30T13:19:32;44.32;11.97
69589;SHT31;56792;50.644;17.984;2023-04-30T13:22:00;42.87;12.26
69589;SHT31;56792;50.644;17.984;2023-04-30T13:24:28;40.24;13.19
69589;SHT31;56792;50.644;17.984;2023-04-30T13:26:56;37.78;14.16
69589;SHT31;56792;50.644;17.984;2023-04-30T13:29:25;35.79;15.20
69589;SHT31;56792;50.644;17.984;2023-04-30T13:31:53;34.06;16.28
69589;SHT31;56792;50.644;17.984;2023-04-30T13:34:21;32.79;17.14
69589;SHT31;56792;50.644;17.984;2023-04-30T13:36:49;31.75;17.57
69589;SHT31;56792;50.644;17.984;2023-04-30T13:39:18;30.75;18.22
69589;SHT31;56792;50.644;17.984;2023-04-30T13:41:46;29.78;18.96
69589;SHT31;56792;50.644;17.984;2023-04-30T13:44:15;29.03;19.30
69589;SHT31;56792;50.644;17.984;2023-04-30T13:46:43;28.38;20.84
69589;SHT31;56792;50.644;17.984;2023-04-30T13:49:11;27.78;21.37
69589;SHT31;56792;50.644;17.984;2023-04-30T13:51:40;27.20;22.21
69589;SHT31;56792;50.644;17.984;2023-04-30T13:54:08;26.72;22.66
69589;SHT31;56792;50.644;17.984;2023-04-30T13:56:36;26.24;22.80
69589;SHT31;56792;50.644;17.984;2023-04-30T13:59:04;25.74;22.72
69589;SHT31;56792;50.644;17.984;2023-04-30T14:01:33;25.33;22.26
69589;SHT31;56792;50.644;17.984;2023-04-30T14:04:01;24.76;22.60
69589;SHT31;56792;50.644;17.984;2023-04-30T14:06:29;24.43;23.33
69589;SHT31;56792;50.644;17.984;2023-04-30T14:08:58;24.10;23.19
69589;SHT31;56792;50.644;17.984;2023-04-30T14:11:26;23.75;23.59
69589;SHT31;56792;50.644;17.984;2023-04-30T14:13:54;23.51;24.25
69589;SHT31;56792;50.644;17.984;2023-04-30T14:16:22;23.34;24.55
69589;SHT31;56792;50.644;17.984;2023-04-30T14:18:52;23.14;24.39
69589;SHT31;56792;50.644;17.984;2023-04-30T14:21:20;22.93;25.36
69589;SHT31;56792;50.644;17.984;2023-04-30T14:23:48;22.79;25.98
69589;SHT31;56792;50.644;17.984;2023-04-30T14:26:17;22.58;26.10
69589;SHT31;56792;50.644;17.984;2023-04-30T14:28:46;22.45;26.60
69589;SHT31;56792;50.644;17.984;2023-04-30T14:31:14;22.31;26.82
69589;SHT31;56792;50.644;17.984;2023-04-30T14:33:43;22.14;26.38
69589;SHT31;56792;50.644;17.984;2023-04-30T14:36:11;21.97;26.58
69589;SHT31;56792;50.644;17.984;2023-04-30T14:38:39;21.83;26.87
69589;SHT31;56792;50.644;17.984;2023-04-30T14:41:08;21.72;27.25
69589;SHT31;56792;50.644;17.984;2023-04-30T14:43:37;21.63;27.63
69589;SHT31;56792;50.644;17.984;2023-04-30T14:46:06;21.55;27.94
69589;SHT31;56792;50.644;17.984;2023-04-30T14:48:34;21.40;27.73
69589;SHT31;56792;50.644;17.984;2023-04-30T14:51:03;21.17;28.06
69589;SHT31;56792;50.644;17.984;2023-04-30T14:53:31;21.01;28.68
69589;SHT31;56792;50.644;17.984;2023-04-30T14:55:59;20.91;28.92
69589;SHT31;56792;50.644;17.984;2023-04-30T14:58:28;20.86;28.73
69589;SHT31;56792;50.644;17.984;2023-04-30T15:00:57;20.74;28.87
69589;SHT31;56792;50.644;17.984;2023-04-30T15:03:25;20.58;29.09
69589;SHT31;56792;50.644;17.984;2023-04-30T15:05:53;20.39;29.23
69589;SHT31;56792;50.644;17.984;2023-04-30T15:08:21;20.34;29.43
69589;SHT31;56792;50.644;17.984;2023-04-30T15:10:50;20.28;29.63
69589;SHT31;56792;50.644;17.984;2023-04-30T15:13:18;20.24;29.59
69589;SHT31;56792;50.644;17.984;2023-04-30T15:15:46;20.13;28.74
69589;SHT31;56792;50.644;17.984;2023-04-30T15:18:14;19.96;28.53
69589;SHT31;56792;50.644;17.984;2023-04-30T15:20:42;19.83;28.53
69589;SHT31;56792;50.644;17.984;2023-04-30T15:23:11;19.75;28.59
69589;SHT31;56792;50.644;17.984;2023-04-30T15:25:40;19.65;28.44
69589;SHT31;56792;50.644;17.984;2023-04-30T15:28:09;19.52;28.65
69589;SHT31;56792;50.644;17.984;2023-04-30T15:30:37;19.38;28.93
69589;SHT31;56792;50.644;17.984;2023-04-30T15:33:05;19.25;28.73
69589;SHT31;56792;50.644;17.984;2023-04-30T15:35:34;19.15;29.17
69589;SHT31;56792;50.644;17.984;2023-04-30T15:38:02;19.05;29.03
69589;SHT31;56792;50.644;17.984;2023-04-30T15:40:30;18.90;29.14